Time;durP1;ratioP1;P1;durP2;ratioP2;P2;SDS_P1;SDS_P2;PMS_P1;PMS_P2;Temp;Humidity;BMP_temperature;BMP_pressure;BME280_temperature;BME280_humidity;BME280_pressure;Samples;Min_cycle;Max_cycle;Signal;HPM_P1;HPM_P2
2024/04/22 00:00:11;;;;;;;16.63;5.88;;;;;;;4.84;100.00;102510.59;5348149;26;20354;-73
2024/04/22 00:02:36;;;;;;;17.75;5.90;;;;;;;4.85;100.00;102515.00;5348509;26;19997;-68
2024/04/22 00:05:01;;;;;;;18.00;6.28;;;;;;;4.77;100.00;102513.69;5348401;26;20391;-70
2024/04/22 00:07:27;;;;;;;17.95;6.10;;;;;;;4.81;100.00;102520.91;5348105;26;20447;-69
2024/04/22 00:09:52;;;;;;;17.88;6.18;;;;;;;4.79;100.00;102513.75;5348652;26;20007;-73
2024/04/22 00:12:17;;;;;;;18.00;6.18;;;;;;;4.81;100.00;102510.41;5348299;26;20478;-70
2024/04/22 00:14:43;;;;;;;17.80;5.95;;;;;;;4.76;100.00;102517.16;5348142;26;20004;-67
2024/04/22 00:17:08;;;;;;;17.40;6.38;;;;;;;4.74;100.00;102508.28;5348143;26;20012;-67
2024/04/22 00:19:33;;;;;;;16.77;5.75;;;;;;;4.69;100.00;102505.41;5347940;26;20005;-67
2024/04/22 00:21:59;;;;;;;17.58;6.07;;;;;;;4.63;100.00;102510.31;5347854;26;20001;-71
2024/04/22 00:24:24;;;;;;;16.88;5.88;;;;;;;4.62;100.00;102502.38;5348291;26;20007;-67
2024/04/22 00:26:50;;;;;;;17.40;6.20;;;;;;;4.48;100.00;102507.72;5347778;26;20040;-71
2024/04/22 00:29:15;;;;;;;17.52;6.10;;;;;;;4.46;100.00;102505.88;5348137;26;19993;-71
2024/04/22 00:31:40;;;;;;;17.83;6.18;;;;;;;4.44;100.00;102502.25;5347916;26;20081;-70
2024/04/22 00:34:06;;;;;;;16.70;6.13;;;;;;;4.43;100.00;102508.31;5345921;26;19997;-71
2024/04/22 00:36:31;;;;;;;17.95;6.35;;;;;;;4.38;100.00;102500.19;5347416;26;20001;-67
2024/04/22 00:38:57;;;;;;;19.20;6.63;;;;;;;4.34;100.00;102495.63;5347618;26;20008;-67
2024/04/22 00:41:25;;;;;;;18.48;6.72;;;;;;;4.28;100.00;102500.47;5347404;26;20029;-70
2024/04/22 00:43:51;;;;;;;17.33;6.10;;;;;;;4.26;100.00;102496.88;5347651;26;20000;-71
2024/04/22 00:46:16;;;;;;;17.50;6.53;;;;;;;4.15;100.00;102497.19;5347506;26;20012;-70
2024/04/22 00:48:42;;;;;;;17.77;6.68;;;;;;;4.09;100.00;102504.69;5345729;26;20440;-70
2024/04/22 00:51:10;;;;;;;17.50;6.50;;;;;;;4.05;100.00;102501.78;5347885;26;19997;-74
2024/04/22 00:53:36;;;;;;;16.92;6.60;;;;;;;3.95;100.00;102500.38;5347765;26;20009;-74
2024/04/22 00:56:01;;;;;;;18.50;6.82;;;;;;;3.92;100.00;102508.94;5347520;26;20312;-69
2024/04/22 00:58:28;;;;;;;18.23;6.63;;;;;;;3.90;100.00;102514.91;5347594;26;20007;-67
2024/04/22 01:00:56;;;;;;;17.90;6.90;;;;;;;3.90;100.00;102512.28;5347591;26;20008;-75
2024/04/22 01:03:22;;;;;;;18.45;6.90;;;;;;;3.83;100.00;102514.53;5347460;26;19993;-68
2024/04/22 01:05:48;;;;;;;19.85;7.15;;;;;;;3.77;100.00;102508.97;5347467;26;20082;-66
2024/04/22 01:08:13;;;;;;;19.10;7.00;;;;;;;3.74;100.00;102511.41;5389740;26;20004;-67
2024/04/22 01:10:38;;;;;;;18.60;7.38;;;;;;;3.66;100.00;102507.41;5345506;26;20377;-69
2024/04/22 01:13:04;;;;;;;18.95;6.90;;;;;;;3.65;100.00;102505.59;5347424;26;20008;-72
2024/04/22 01:15:31;;;;;;;18.27;7.10;;;;;;;3.69;100.00;102517.16;5347400;26;19996;-71
2024/04/22 01:17:56;;;;;;;19.23;7.30;;;;;;;3.59;100.00;102505.25;5340676;26;19997;-74
2024/04/22 01:20:21;;;;;;;18.08;6.93;;;;;;;3.65;100.00;102496.03;5345476;26;20433;-74
2024/04/22 01:22:47;;;;;;;18.60;7.25;;;;;;;3.72;100.00;102502.53;5345044;26;20007;-73
2024/04/22 01:25:16;;;;;;;20.08;7.53;;;;;;;3.81;100.00;102496.94;5345281;26;20501;-73
2024/04/22 01:27:41;;;;;;;18.63;7.55;;;;;;;3.76;100.00;102494.06;5347127;26;20011;-71
2024/04/22 01:30:07;;;;;;;17.98;6.88;;;;;;;3.82;100.00;102494.41;5347275;26;19997;-74
2024/04/22 01:32:32;;;;;;;18.67;7.50;;;;;;;3.82;100.00;102498.75;5346917;26;19997;-75
2024/04/22 01:35:00;;;;;;;18.63;7.10;;;;;;;3.86;100.00;102500.75;5347136;26;20074;-75
2024/04/22 01:37:29;;;;;;;18.48;7.00;;;;;;;3.83;100.00;102497.97;5346971;26;20011;-75
2024/04/22 01:39:55;;;;;;;18.67;7.35;;;;;;;3.78;100.00;102491.53;5346914;26;19997;-72
2024/04/22 01:42:21;;;;;;;18.45;7.03;;;;;;;3.81;100.00;102495.22;5347165;26;20005;-67
2024/04/22 01:44:47;;;;;;;17.98;7.03;;;;;;;3.88;100.00;102492.97;5346683;26;20008;-71
2024/04/22 01:47:12;;;;;;;18.55;7.32;;;;;;;3.83;100.00;102491.00;5346988;26;20343;-71
2024/04/22 01:49:37;;;;;;;18.33;7.05;;;;;;;3.93;100.00;102491.50;5345592;26;20058;-70
2024/04/22 01:52:03;;;;;;;18.70;7.10;;;;;;;3.98;100.00;102495.31;5346647;26;20480;-70
2024/04/22 01:54:28;;;;;;;19.77;7.57;;;;;;;4.01;100.00;102482.41;5345466;26;20417;-67
2024/04/22 01:56:55;;;;;;;18.40;7.18;;;;;;;4.00;100.00;102483.22;5346702;26;20506;-67
2024/04/22 01:59:22;;;;;;;18.73;7.20;;;;;;;3.95;100.00;102485.56;5346427;26;20467;-67
2024/04/22 02:01:47;;;;;;;19.15;7.30;;;;;;;4.02;100.00;102471.13;5346962;26;20029;-68
2024/04/22 02:04:13;;;;;;;19.17;6.97;;;;;;;4.05;100.00;102473.00;5347032;26;20486;-71
2024/04/22 02:06:38;;;;;;;19.63;7.20;;;;;;;4.05;100.00;102471.31;5346367;26;20379;-68
2024/04/22 02:09:04;;;;;;;18.30;7.00;;;;;;;4.07;100.00;102469.66;5346532;26;20008;-70
2024/04/22 02:11:29;;;;;;;19.17;7.43;;;;;;;4.04;100.00;102464.25;5346666;26;19993;-69
2024/04/22 02:13:55;;;;;;;18.95;7.57;;;;;;;4.01;100.00;102474.56;5344827;26;20367;-68
2024/04/22 02:16:21;;;;;;;18.98;7.38;;;;;;;3.95;100.00;102468.97;5346824;26;20009;-69
2024/04/22 02:18:46;;;;;;;19.52;7.50;;;;;;;3.90;100.00;102467.78;5346445;26;20000;-69
2024/04/22 02:21:11;;;;;;;18.42;7.10;;;;;;;3.86;100.00;102471.03;5344366;26;19993;-67
2024/04/22 02:23:37;;;;;;;18.35;7.20;;;;;;;3.71;100.00;102463.22;5346742;26;20001;-70
2024/04/22 02:26:05;;;;;;;19.73;7.60;;;;;;;3.65;100.00;102467.25;5388844;26;20075;-68
2024/04/22 02:28:30;;;;;;;18.70;7.25;;;;;;;3.59;100.00;102466.91;5346247;26;20007;-71
2024/04/22 02:30:56;;;;;;;20.60;7.75;;;;;;;3.54;100.00;102457.91;5346503;26;19997;-70
2024/04/22 02:33:21;;;;;;;19.60;7.57;;;;;;;3.47;100.00;102464.47;5346105;26;19996;-70
2024/04/22 02:35:47;;;;;;;19.17;7.50;;;;;;;3.45;100.00;102466.13;5346169;26;20037;-70
2024/04/22 02:38:13;;;;;;;18.60;7.25;;;;;;;3.39;100.00;102460.50;5346455;26;20026;-68
2024/04/22 02:40:39;;;;;;;19.02;7.45;;;;;;;3.34;100.00;102463.69;5345528;26;20355;-70
2024/04/22 02:43:05;;;;;;;18.85;7.78;;;;;;;3.34;100.00;102461.06;5344209;26;19992;-70
2024/04/22 02:45:30;;;;;;;18.67;7.22;;;;;;;3.29;100.00;102463.38;5345956;26;20001;-71
2024/04/22 02:47:55;;;;;;;19.02;7.80;;;;;;;3.24;100.00;102450.03;5338719;26;20067;-70
2024/04/22 02:50:21;;;;;;;21.55;7.90;;;;;;;3.17;100.00;102452.19;5346241;26;20075;-71
2024/04/22 02:52:46;;;;;;;19.10;7.55;;;;;;;3.15;100.00;102452.09;5345939;26;20007;-71
2024/04/22 02:55:12;;;;;;;20.15;7.88;;;;;;;3.07;100.00;102448.13;5345837;26;20005;-71
2024/04/22 02:57:37;;;;;;;19.38;7.75;;;;;;;2.90;100.00;102441.88;5346050;26;20078;-70
2024/04/22 03:00:04;;;;;;;18.73;7.68;;;;;;;2.82;100.00;102444.00;5346450;26;20009;-70
2024/04/22 03:02:30;;;;;;;18.92;7.45;;;;;;;2.70;100.00;102441.56;5349012;26;20070;-72
2024/04/22 03:04:55;;;;;;;18.48;7.40;;;;;;;2.66;100.00;102446.50;5348974;26;20005;-72
2024/04/22 03:07:20;;;;;;;19.92;7.90;;;;;;;2.63;100.00;102452.41;5391213;26;20328;-73
2024/04/22 03:09:46;;;;;;;19.30;8.00;;;;;;;2.58;100.00;102456.47;5348933;26;20011;-72
2024/04/22 03:12:12;;;;;;;19.60;7.97;;;;;;;2.44;100.00;102451.25;5348962;26;20451;-75
2024/04/22 03:14:38;;;;;;;19.85;7.97;;;;;;;2.40;100.00;102449.28;5348984;26;20009;-76
2024/04/22 03:17:04;;;;;;;19.67;8.15;;;;;;;2.39;100.00;102457.03;5348908;26;20325;-75
2024/04/22 03:19:29;;;;;;;20.02;8.90;;;;;;;2.38;100.00;102458.72;5348985;26;20444;-74
2024/04/22 03:21:55;;;;;;;19.92;8.57;;;;;;;2.37;100.00;102459.50;5348594;26;20066;-76
2024/04/22 03:24:20;;;;;;;19.60;8.80;;;;;;;2.33;100.00;102451.38;5349026;26;20008;-76
2024/04/22 03:26:45;;;;;;;19.33;8.20;;;;;;;2.29;100.00;102455.53;5348845;26;20332;-77
2024/04/22 03:29:11;;;;;;;21.13;8.75;;;;;;;2.37;100.00;102449.06;5348649;26;20070;-75
2024/04/22 03:31:36;;;;;;;19.75;8.35;;;;;;;2.30;100.00;102445.97;5349084;26;20003;-74
2024/04/22 03:34:02;;;;;;;19.42;8.50;;;;;;;2.24;100.00;102451.69;5348901;26;20000;-76
2024/04/22 03:36:27;;;;;;;19.42;8.23;;;;;;;2.22;100.00;102442.88;5348536;26;19996;-73
2024/04/22 03:38:53;;;;;;;20.15;8.82;;;;;;;2.22;100.00;102446.38;5347250;26;20001;-71
2024/04/22 03:41:18;;;;;;;19.92;8.70;;;;;;;2.26;100.00;102442.28;5346579;26;19993;-73
2024/04/22 03:43:43;;;;;;;20.83;8.85;;;;;;;2.25;100.00;102437.84;5346763;26;20008;-67
2024/04/22 03:51:37;;;;;;;20.20;9.05;;;;;;;2.21;100.00;102436.78;5344152;26;20092;-72
2024/04/22 03:54:02;;;;;;;20.33;8.75;;;;;;;2.20;100.00;102440.19;5348781;26;20444;-69
2024/04/22 03:56:27;;;;;;;20.95;9.10;;;;;;;2.16;100.00;102437.28;5348245;26;19997;-70
2024/04/22 03:58:53;;;;;;;20.30;8.50;;;;;;;2.19;100.00;102433.16;5348381;26;20452;-70
2024/04/22 04:01:18;;;;;;;20.00;9.02;;;;;;;2.22;100.00;102435.06;5348033;26;20003;-69
2024/04/22 04:03:44;;;;;;;19.73;8.75;;;;;;;2.23;100.00;102439.47;5346766;26;20008;-71
2024/04/22 04:06:09;;;;;;;20.75;9.13;;;;;;;2.17;100.00;102434.78;5346910;26;20044;-67
2024/04/22 04:08:35;;;;;;;20.08;9.05;;;;;;;2.15;100.00;102436.34;5348409;26;20410;-66
2024/04/22 04:11:05;;;;;;;20.95;9.00;;;;;;;2.15;100.00;102435.47;5348531;26;19993;-69
2024/04/22 04:13:30;;;;;;;19.95;9.05;;;;;;;2.04;100.00;102440.91;5340107;26;20004;-67
2024/04/22 04:15:56;;;;;;;19.67;9.07;;;;;;;2.05;100.00;102445.31;5348291;26;20327;-71
2024/04/22 04:18:22;;;;;;;20.70;9.35;;;;;;;2.04;100.00;102440.91;5348417;26;20328;-73
2024/04/22 04:20:48;;;;;;;19.98;8.88;;;;;;;2.03;100.00;102438.19;5348043;26;20012;-66
2024/04/22 04:23:13;;;;;;;20.25;9.38;;;;;;;2.02;100.00;102436.38;5346368;26;20001;-69
2024/04/22 04:25:39;;;;;;;20.90;9.20;;;;;;;2.04;100.00;102439.97;5348096;26;20062;-67
2024/04/22 04:28:05;;;;;;;20.40;9.00;;;;;;;1.98;100.00;102440.50;5348078;26;20009;-70
2024/04/22 04:30:30;;;;;;;22.05;9.00;;;;;;;2.00;100.00;102444.09;5347728;26;19999;-70
2024/04/22 04:32:56;;;;;;;21.02;9.38;;;;;;;1.98;100.00;102442.19;5346228;26;20000;-71
2024/04/22 04:35:22;;;;;;;21.20;9.43;;;;;;;1.98;100.00;102443.13;5346089;26;19996;-69
2024/04/22 04:37:50;;;;;;;21.45;9.40;;;;;;;1.99;100.00;102449.22;5390199;26;20001;-67
2024/04/22 04:40:16;;;;;;;21.05;8.95;;;;;;;1.94;100.00;102446.34;5347647;26;19993;-66
2024/04/22 04:42:41;;;;;;;20.63;9.32;;;;;;;1.94;100.00;102448.00;5347448;26;20011;-70
2024/04/22 04:45:06;;;;;;;20.70;9.10;;;;;;;1.95;100.00;102450.72;5347448;26;20008;-68
2024/04/22 04:47:32;;;;;;;20.10;9.35;;;;;;;1.97;100.00;102448.25;5348003;26;20328;-70
2024/04/22 04:49:57;;;;;;;21.20;9.52;;;;;;;1.92;100.00;102442.69;5347841;26;20005;-70
2024/04/22 04:52:23;;;;;;;20.17;9.30;;;;;;;1.97;100.00;102445.63;5345859;26;20008;-71
2024/04/22 04:54:48;;;;;;;20.33;9.23;;;;;;;1.95;100.00;102442.00;5347567;26;19992;-70
2024/04/22 04:57:13;;;;;;;20.48;9.55;;;;;;;1.98;100.00;102450.94;5347338;26;20455;-71
2024/04/22 04:59:38;;;;;;;20.67;9.38;;;;;;;2.02;100.00;102455.53;5347381;26;19996;-70
2024/04/22 05:02:04;;;;;;;21.52;9.70;;;;;;;2.06;100.00;102454.03;5347771;26;20007;-67
2024/04/22 05:04:30;;;;;;;22.30;9.60;;;;;;;2.06;100.00;102452.31;5347281;26;20008;-71
2024/04/22 05:06:55;;;;;;;21.25;9.85;;;;;;;2.11;100.00;102449.13;5347866;26;20012;-70
2024/04/22 05:09:21;;;;;;;21.38;10.23;;;;;;;2.16;100.00;102452.94;5347169;26;19993;-71
2024/04/22 05:11:46;;;;;;;20.65;9.73;;;;;;;2.26;100.00;102450.13;5347548;26;20004;-69
2024/04/22 05:14:11;;;;;;;21.83;10.10;;;;;;;2.32;100.00;102449.59;5347721;26;20007;-75
2024/04/22 05:16:37;;;;;;;21.23;10.02;;;;;;;2.38;100.00;102455.22;5389469;26;20000;-67
2024/04/22 05:19:03;;;;;;;21.60;10.18;;;;;;;2.49;100.00;102442.81;5347386;26;20059;-68
2024/04/22 05:21:28;;;;;;;21.10;10.07;;;;;;;2.56;100.00;102445.94;5345482;26;20440;-74
2024/04/22 05:23:55;;;;;;;20.33;9.30;;;;;;;2.65;100.00;102450.81;5387962;26;19997;-70
2024/04/22 05:26:20;;;;;;;20.58;9.38;;;;;;;2.74;100.00;102435.72;5347242;26;20001;-67
2024/04/22 05:28:45;;;;;;;20.08;9.20;;;;;;;2.88;100.00;102443.50;5347368;26;19996;-72
2024/04/22 05:31:11;;;;;;;20.08;9.00;;;;;;;2.97;100.00;102444.97;5347005;26;20066;-72
2024/04/22 05:36:20;;;;;;;19.30;8.60;;;;;;;3.19;100.00;102438.41;5347106;26;20025;-71
2024/04/22 05:38:48;;;;;;;20.67;9.07;;;;;;;3.25;100.00;102436.16;5347063;26;20001;-71
2024/04/22 05:41:14;;;;;;;20.17;9.20;;;;;;;3.36;100.00;102444.63;5346396;26;20070;-70
2024/04/22 05:43:39;;;;;;;20.40;9.63;;;;;;;3.44;100.00;102443.38;5346682;26;20008;-74
2024/04/22 05:46:10;;;;;;;22.98;11.73;;;;;;;3.53;100.00;102444.75;5347319;26;19992;-68
2024/04/22 05:48:35;;;;;;;20.80;10.90;;;;;;;3.60;100.00;102445.19;5346923;26;20324;-71
2024/04/22 05:51:02;;;;;;;20.38;8.60;;;;;;;3.65;100.00;102453.28;5346944;26;20005;-74
2024/04/22 05:53:27;;;;;;;19.35;8.70;;;;;;;3.71;100.00;102443.19;5347211;26;19992;-67
2024/04/22 05:55:52;;;;;;;19.45;8.57;;;;;;;3.74;100.00;102443.38;5346658;26;20405;-72
2024/04/22 05:58:17;;;;;;;19.83;8.90;;;;;;;3.82;100.00;102443.81;5346737;26;19992;-72
2024/04/22 06:00:43;;;;;;;20.80;9.57;;;;;;;3.91;100.00;102440.81;5346716;26;19997;-75
2024/04/22 06:03:09;;;;;;;22.45;12.43;;;;;;;3.98;100.00;102438.63;5346459;26;20041;-70
2024/04/22 06:05:34;;;;;;;20.02;9.30;;;;;;;4.04;100.00;102438.09;5347013;26;20008;-75
2024/04/22 06:07:59;;;;;;;21.05;9.98;;;;;;;4.18;100.00;102437.13;5346482;26;20016;-73
2024/04/22 06:10:25;;;;;;;19.73;8.90;;;;;;;4.28;100.00;102437.63;5344768;26;20009;-68
2024/04/22 06:12:50;;;;;;;19.13;7.90;;;;;;;4.37;100.00;102435.56;5347005;26;20008;-69
2024/04/22 06:15:16;;;;;;;18.30;7.70;;;;;;;4.47;100.00;102431.69;5346426;26;20041;-71
2024/04/22 06:17:41;;;;;;;18.85;7.70;;;;;;;4.49;100.00;102430.09;5346261;26;20007;-71
2024/04/22 06:20:07;;;;;;;19.75;8.40;;;;;;;4.54;100.00;102428.59;5346578;26;20020;-69
2024/04/22 06:22:34;;;;;;;19.67;8.13;;;;;;;4.66;100.00;102430.97;5346419;26;19993;-69
2024/04/22 06:25:00;;;;;;;20.48;8.98;;;;;;;4.72;100.00;102426.09;5339868;26;20000;-70
2024/04/22 06:27:25;;;;;;;21.33;10.57;;;;;;;4.87;100.00;102428.63;5346239;26;20525;-74
2024/04/22 06:29:50;;;;;;;19.73;8.38;;;;;;;4.95;100.00;102419.44;5344278;26;20028;-70
2024/04/22 06:32:16;;;;;;;19.33;7.85;;;;;;;5.01;100.00;102426.69;5388394;26;20004;-74
2024/04/22 06:34:41;;;;;;;19.40;7.18;;;;;;;5.09;100.00;102425.38;5346871;26;20005;-69
2024/04/22 06:37:06;;;;;;;17.63;6.43;;;;;;;5.19;100.00;102414.56;5349569;26;20070;-71
2024/04/22 06:39:31;;;;;;;16.63;6.03;;;;;;;5.29;100.00;102415.06;5347902;26;20078;-72
2024/04/22 06:41:57;;;;;;;16.88;6.25;;;;;;;5.38;100.00;102413.78;5347121;26;19997;-75
2024/04/22 06:44:22;;;;;;;17.90;5.93;;;;;;;5.48;100.00;102412.53;5347352;26;20001;-72
2024/04/22 06:46:47;;;;;;;18.02;6.20;;;;;;;5.60;100.00;102414.84;5348030;26;20004;-71
2024/04/22 06:49:13;;;;;;;18.60;6.00;;;;;;;5.73;100.00;102413.75;5349041;26;20001;-68
2024/04/22 06:51:38;;;;;;;17.75;5.88;;;;;;;5.86;100.00;102415.25;5349238;26;20003;-69
2024/04/22 06:54:04;;;;;;;16.50;5.80;;;;;;;5.99;100.00;102416.78;5349492;26;20008;-68
2024/04/22 06:56:29;;;;;;;18.15;6.10;;;;;;;6.11;100.00;102412.97;5349323;26;20395;-69
2024/04/22 06:58:54;;;;;;;17.85;6.53;;;;;;;6.27;100.00;102408.47;5349106;26;20429;-69
2024/04/22 07:01:20;;;;;;;18.83;6.20;;;;;;;6.46;100.00;102415.47;5347239;26;20440;-67
2024/04/22 07:03:45;;;;;;;15.77;5.38;;;;;;;6.52;100.00;102407.88;5347447;26;20008;-68
2024/04/22 07:06:12;;;;;;;16.58;5.43;;;;;;;6.72;100.00;102410.53;5347120;26;20009;-70
2024/04/22 07:08:37;;;;;;;16.85;5.28;;;;;;;6.82;100.00;102409.22;5347490;26;20337;-70
2024/04/22 07:11:03;;;;;;;16.92;5.28;;;;;;;7.07;100.00;102406.81;5347737;26;20004;-73
2024/04/22 07:13:28;;;;;;;15.65;5.20;;;;;;;7.25;100.00;102404.09;5349379;26;20353;-72
2024/04/22 07:15:53;;;;;;;15.60;4.97;;;;;;;7.45;100.00;102397.03;5348740;26;20436;-72
2024/04/22 07:18:19;;;;;;;14.98;4.43;;;;;;;7.56;100.00;102402.75;5347136;26;20324;-75
2024/04/22 07:20:44;;;;;;;16.65;4.70;;;;;;;7.74;100.00;102394.72;5347359;26;19993;-76
2024/04/22 07:23:10;;;;;;;14.52;4.78;;;;;;;7.89;100.00;102397.06;5348786;26;20005;-67
2024/04/22 07:25:35;;;;;;;15.27;4.63;;;;;;;8.09;100.00;102394.31;5347066;26;19993;-67
2024/04/22 07:28:01;;;;;;;14.52;4.38;;;;;;;8.18;100.00;102389.41;5348879;26;20001;-67
2024/04/22 07:30:27;;;;;;;14.75;4.47;;;;;;;8.31;100.00;102389.03;5348897;26;20013;-67
2024/04/22 07:32:53;;;;;;;12.50;4.18;;;;;;;8.47;100.00;102389.66;5348500;26;20007;-68
2024/04/22 07:35:19;;;;;;;12.48;4.20;;;;;;;8.63;100.00;102389.38;5349146;26;20001;-68
2024/04/22 07:37:46;;;;;;;13.50;4.30;;;;;;;8.78;100.00;102391.72;5348398;26;20007;-67
2024/04/22 07:40:17;;;;;;;13.18;4.10;;;;;;;8.85;100.00;102393.72;5348537;26;20324;-71
2024/04/22 07:42:45;;;;;;;12.32;4.22;;;;;;;8.96;100.00;102382.66;5348269;26;20063;-68
2024/04/22 07:45:11;;;;;;;12.70;4.28;;;;;;;9.10;100.00;102380.50;5342754;26;19997;-70
2024/04/22 07:47:37;;;;;;;14.55;4.40;;;;;;;9.10;100.00;102380.50;5347474;26;20058;-68
2024/04/22 07:50:03;;;;;;;14.35;4.20;;;;;;;9.13;100.00;102385.88;5348701;26;19997;-67
2024/04/22 07:52:30;;;;;;;13.88;4.43;;;;;;;9.18;100.00;102386.94;5346537;26;20008;-71
2024/04/22 07:54:56;;;;;;;12.95;4.10;;;;;;;9.39;100.00;102385.03;5348304;26;20005;-70
2024/04/22 07:57:22;;;;;;;13.43;4.20;;;;;;;9.64;100.00;102387.56;5348717;26;20065;-70
2024/04/22 07:59:47;;;;;;;12.88;4.10;;;;;;;9.85;100.00;102388.28;5348159;26;20005;-69
2024/04/22 08:02:13;;;;;;;13.00;3.97;;;;;;;9.92;100.00;102382.34;5346404;26;20004;-71
2024/04/22 08:04:39;;;;;;;12.07;3.90;;;;;;;10.01;100.00;102392.31;5348302;26;20452;-73
2024/04/22 08:07:04;;;;;;;11.00;3.70;;;;;;;10.25;100.00;102384.25;5348464;26;20003;-67
2024/04/22 08:09:30;;;;;;;13.60;4.00;;;;;;;10.74;100.00;102390.06;5348364;26;20071;-66
2024/04/22 08:11:56;;;;;;;11.98;3.83;;;;;;;11.09;100.00;102379.56;5348348;26;19993;-66
2024/04/22 08:14:21;;;;;;;11.85;3.80;;;;;;;11.47;100.00;102379.66;5390486;26;20428;-66
2024/04/22 08:16:47;;;;;;;14.10;3.95;;;;;;;11.79;100.00;102383.97;5346057;26;20003;-66
2024/04/22 08:19:12;;;;;;;12.68;3.72;;;;;;;11.79;100.00;102383.97;5348188;26;19996;-69
2024/04/22 08:21:38;;;;;;;13.10;3.80;;;;;;;11.95;100.00;102383.47;5347815;26;20564;-66
2024/04/22 08:24:04;;;;;;;11.25;3.28;;;;;;;11.96;100.00;102376.44;5348157;26;19997;-68
2024/04/22 08:26:29;;;;;;;12.60;3.78;;;;;;;12.04;100.00;102382.78;5348099;26;20420;-68
2024/04/22 08:28:54;;;;;;;11.65;3.72;;;;;;;11.95;100.00;102375.53;5347964;26;20345;-70
2024/04/22 08:31:19;;;;;;;12.10;3.58;;;;;;;12.14;100.00;102379.50;5390513;26;19996;-66
2024/04/22 08:33:45;;;;;;;8.90;3.10;;;;;;;12.11;100.00;102382.06;5348097;26;19997;-66
2024/04/22 08:36:10;;;;;;;10.52;3.30;;;;;;;12.26;100.00;102381.53;5343341;26;19997;-66
2024/04/22 08:38:36;;;;;;;10.10;3.50;;;;;;;12.32;100.00;102380.75;5347743;26;20021;-68
2024/04/22 08:41:01;;;;;;;12.35;3.30;;;;;;;12.34;100.00;102381.69;5340247;26;20011;-67
2024/04/22 08:43:27;;;;;;;11.73;3.30;;;;;;;12.37;100.00;102385.28;5342326;26;20001;-75
2024/04/22 08:45:52;;;;;;;12.75;3.17;;;;;;;12.27;100.00;102382.44;5345160;26;19997;-69
2024/04/22 08:48:18;;;;;;;11.75;3.20;;;;;;;12.16;100.00;102379.56;5347590;26;19997;-66
2024/04/22 08:50:46;;;;;;;11.23;3.40;;;;;;;12.28;100.00;102379.81;5347278;26;19996;-69
2024/04/22 08:53:11;;;;;;;10.07;3.13;;;;;;;12.63;100.00;102381.41;5344381;26;20008;-66
2024/04/22 08:55:38;;;;;;;10.18;3.17;;;;;;;13.08;100.00;102381.41;5347542;26;20325;-71
2024/04/22 08:58:04;;;;;;;11.32;3.25;;;;;;;13.60;100.00;102380.53;5347119;26;20001;-71
2024/04/22 09:00:29;;;;;;;11.80;3.13;;;;;;;13.78;100.00;102385.25;5347646;26;19993;-72
2024/04/22 09:02:55;;;;;;;8.98;2.90;;;;;;;13.37;100.00;102382.84;5347784;26;20008;-69
2024/04/22 09:05:20;;;;;;;12.43;3.20;;;;;;;12.88;100.00;102366.88;5347752;26;20005;-72
2024/04/22 09:07:50;;;;;;;10.57;3.05;;;;;;;12.74;100.00;102371.91;5347436;26;20397;-71
2024/04/22 09:10:17;;;;;;;13.18;3.10;;;;;;;12.83;100.00;102377.41;5347127;26;20448;-70
2024/04/22 09:12:42;;;;;;;11.77;2.95;;;;;;;12.87;100.00;102354.44;5347371;26;20001;-69
2024/04/22 09:15:08;;;;;;;11.85;3.03;;;;;;;12.65;100.00;102356.69;5347306;26;20004;-72
2024/04/22 09:17:33;;;;;;;9.23;2.90;;;;;;;12.28;100.00;102368.31;5347069;26;20007;-70
2024/04/22 09:19:58;;;;;;;13.80;2.97;;;;;;;11.99;100.00;102369.44;5347014;26;20008;-68
2024/04/22 09:22:24;;;;;;;12.50;2.88;;;;;;;11.74;100.00;102352.06;5347459;26;20429;-70
2024/04/22 09:24:49;;;;;;;13.32;3.10;;;;;;;11.43;100.00;102353.97;5347272;26;19992;-70
2024/04/22 09:27:15;;;;;;;11.40;3.03;;;;;;;11.47;100.00;102354.94;5347269;26;19997;-69
2024/04/22 09:29:45;;;;;;;12.73;2.90;;;;;;;11.39;100.00;102352.09;5347070;26;20067;-68
2024/04/22 09:32:15;;;;;;;10.93;2.90;;;;;;;11.60;100.00;102356.13;5340811;26;19997;-68
2024/04/22 09:34:41;;;;;;;10.98;2.70;;;;;;;12.36;100.00;102350.78;5347344;26;20003;-66
2024/04/22 09:37:07;;;;;;;10.02;2.70;;;;;;;12.29;100.00;102359.47;5344340;26;20496;-70
2024/04/22 09:39:33;;;;;;;12.43;2.75;;;;;;;12.11;100.00;102352.91;5346802;26;20072;-66
2024/04/22 09:42:01;;;;;;;11.68;2.90;;;;;;;12.18;100.00;102360.16;5346527;26;20078;-67
2024/04/22 09:44:29;;;;;;;8.90;2.50;;;;;;;14.04;100.00;102355.53;5347110;26;20007;-69
2024/04/22 09:46:56;;;;;;;12.63;2.90;;;;;;;15.55;100.00;102349.16;5346924;26;20448;-71
2024/04/22 09:49:24;;;;;;;8.85;2.67;;;;;;;15.67;100.00;102349.25;5346940;26;20078;-70
2024/04/22 09:51:49;;;;;;;11.38;2.70;;;;;;;14.89;100.00;102344.16;5347121;26;20083;-70
2024/04/22 09:54:16;;;;;;;11.80;2.90;;;;;;;13.92;100.00;102349.16;5346613;26;20008;-72
2024/04/22 09:56:44;;;;;;;9.55;2.80;;;;;;;13.22;100.00;102338.25;5346494;26;20023;-66
2024/04/22 09:59:09;;;;;;;11.00;3.00;;;;;;;12.88;100.00;102332.38;5346951;26;20192;-72
2024/04/22 10:01:58;;;;;;;12.73;3.10;;;;;;;12.36;100.00;102330.50;5346493;26;20000;-66
2024/04/22 10:04:23;;;;;;;14.30;3.05;;;;;;;11.76;100.00;102330.91;5345142;26;20005;-67
2024/04/22 10:06:50;;;;;;;10.63;2.75;;;;;;;13.98;100.00;102324.44;5344796;26;20004;-67
2024/04/22 10:09:16;;;;;;;8.85;2.58;;;;;;;16.21;81.71;102327.38;5346273;26;20028;-67
2024/04/22 10:11:42;;;;;;;9.38;2.60;;;;;;;17.95;67.17;102315.97;5346117;26;20007;-70
2024/04/22 10:14:13;;;;;;;8.57;2.40;;;;;;;19.25;56.64;102317.91;5346534;26;20013;-75
2024/04/22 10:16:39;;;;;;;9.20;2.40;;;;;;;19.89;51.53;102307.50;5346654;26;19993;-74
2024/04/22 10:19:05;;;;;;;8.77;2.70;;;;;;;20.87;54.40;102313.38;5346597;26;20011;-75
2024/04/22 10:21:30;;;;;;;10.45;2.67;;;;;;;21.45;50.41;102316.91;5346595;26;20083;-72
2024/04/22 10:23:55;;;;;;;7.35;2.50;;;;;;;20.55;48.24;102301.28;5346415;26;20011;-65
2024/04/22 10:26:21;;;;;;;7.38;2.50;;;;;;;21.01;52.40;102307.78;5345680;26;19997;-68
2024/04/22 10:28:47;;;;;;;10.20;2.70;;;;;;;20.00;47.44;102302.91;5346147;26;20079;-70
2024/04/22 10:31:31;;;;;;;9.43;2.67;;;;;;;18.22;59.86;102295.38;5346280;26;20071;-69
2024/04/22 10:33:58;;;;;;;11.48;2.78;;;;;;;16.65;60.61;102297.25;5345469;26;19997;-68
2024/04/22 10:36:25;;;;;;;9.98;2.60;;;;;;;15.99;64.52;102295.28;5345855;26;20079;-67
2024/04/22 10:38:51;;;;;;;7.82;2.60;;;;;;;16.52;71.05;102292.78;5343467;26;20029;-68
2024/04/22 10:41:16;;;;;;;10.32;2.83;;;;;;;16.71;75.27;102289.25;5346298;26;19997;-72
2024/04/22 10:43:45;;;;;;;10.13;2.80;;;;;;;17.60;67.22;102285.75;5345582;26;20004;-73
2024/04/22 10:46:10;;;;;;;9.63;2.70;;;;;;;18.35;63.29;102278.34;5346058;26;20505;-67
2024/04/22 10:48:36;;;;;;;10.30;2.80;;;;;;;20.16;56.18;102282.13;5345999;26;20013;-73
2024/04/22 10:51:02;;;;;;;10.68;2.83;;;;;;;21.62;49.09;102283.44;5343222;26;20349;-66
2024/04/22 10:53:27;;;;;;;10.20;2.63;;;;;;;21.78;50.00;102282.22;5387723;26;20007;-67
2024/04/22 10:55:53;;;;;;;9.20;2.67;;;;;;;20.38;50.98;102282.72;5345388;26;20001;-66
2024/04/22 10:58:18;;;;;;;8.15;2.60;;;;;;;19.83;50.31;102279.84;5345289;26;19997;-66
2024/04/22 11:00:45;;;;;;;13.05;3.08;;;;;;;20.92;48.05;102275.69;5345352;26;20029;-66
2024/04/22 11:03:11;;;;;;;9.70;2.80;;;;;;;20.88;45.98;102278.41;5345413;26;20317;-66
2024/04/22 11:05:36;;;;;;;6.55;2.67;;;;;;;19.41;50.73;102271.31;5345722;26;20007;-75
2024/04/22 11:08:02;;;;;;;7.07;2.58;;;;;;;17.94;51.58;102269.63;5345237;26;20078;-72
2024/04/22 11:10:29;;;;;;;9.48;2.67;;;;;;;16.54;56.52;102272.31;5388012;26;20531;-67
2024/04/22 11:12:55;;;;;;;9.30;2.90;;;;;;;15.93;61.22;102263.25;5338691;26;20476;-73
2024/04/22 11:15:21;;;;;;;8.55;2.80;;;;;;;15.89;64.59;102264.13;5345534;26;20001;-74
2024/04/22 11:17:46;;;;;;;9.00;2.90;;;;;;;16.23;60.63;102250.91;5345376;26;19997;-74